الصفحة الرئيسية
صور الأقمار الصناعية توقعات الطقس لمدة 15 يوممناخالتوقعات البحرية إعصار برق مطارأسئلة وأجوبة النشرة الإخبارية حول
طقس : أوروبا أفريقيا أمريكا الشمالية أمريكا الجنوبية آسيا أستراليا-أوقيانوسيا آخرون
لغات جهة اتصال

سكاكا, السعودية

دائرة عرض: 29-47N, خط طول: 040-06E, ارتفاع: 689 m


METAR: OESK 220900Z 11004KT CAVOK 33/06 Q1013 NOSIG
TAF: OESK 212230Z 2200/2306 34012KT CAVOK

زمن: 13:11 (10:11 UTC)

مراقبة الطقس الحالي

تاريخ و وقت الإصدار 01 ساعة و 11 دقيقة قبل الساعة 09:00 UTC  
ريح 04 kt من الشرق/الجنوب
درجة الحرارة 33°C
الرطوبة 19%
ضغط 1013 hPa
الرؤية 10 km أو أكثر
الغيوم لا تقل 1500 م وليس السحاب الأسود

تغيير وحدة

توقعات

تاريخ و وقت الإصدار 11 ساعات و 41 دقيقة قبل الساعة 22:30 UTC  
صالحة من التوقعات 22 في 00 بالتوقيت العالمي إلى 23 في 06 بالتوقيت العالمي
ريح 12 kt من الشمال/
الرؤية 10 km أو أكثر
الغيوم لا تقل 1500 م وليس السحاب الأسود
المعلومات الواردة في هذا الموقع يخضع إخلاء
طقس : أوروبا أفريقيا أمريكا الشمالية أمريكا الجنوبية آسيا أستراليا-أوقيانوسيا آخرون
صور الأقمار الصناعية توقعات الطقس لمدة 15 يوممناخالتوقعات البحرية إعصار برق مطارأسئلة وأجوبة لغات جهة اتصال النشرة الإخبارية حول